sensor_id;sensor_type;location;lat;lon;timestamp;pressure;altitude;pressure_sealevel;temperature;humidity
33414;BME280;60055;41.884;12.534;2023-04-27T00:00:50;101016.81;;;17.21;60.31
33414;BME280;60055;41.884;12.534;2023-04-27T00:03:16;101009.75;;;17.20;60.28
33414;BME280;60055;41.884;12.534;2023-04-27T00:05:41;101018.81;;;17.18;59.53
33414;BME280;60055;41.884;12.534;2023-04-27T00:08:07;101012.59;;;17.17;59.51
33414;BME280;60055;41.884;12.534;2023-04-27T00:10:33;101004.41;;;17.20;59.11
33414;BME280;60055;41.884;12.534;2023-04-27T00:12:58;101010.53;;;17.22;58.54
33414;BME280;60055;41.884;12.534;2023-04-27T00:15:24;101009.16;;;16.85;59.98
33414;BME280;60055;41.884;12.534;2023-04-27T00:17:49;101007.41;;;17.00;59.48
33414;BME280;60055;41.884;12.534;2023-04-27T00:20:15;101013.69;;;16.99;59.70
33414;BME280;60055;41.884;12.534;2023-04-27T00:22:41;101018.53;;;16.93;58.75
33414;BME280;60055;41.884;12.534;2023-04-27T00:25:07;101008.53;;;16.96;57.31
33414;BME280;60055;41.884;12.534;2023-04-27T00:27:32;101011.28;;;16.95;57.67
33414;BME280;60055;41.884;12.534;2023-04-27T00:29:57;101021.03;;;16.96;58.08
33414;BME280;60055;41.884;12.534;2023-04-27T00:32:23;101021.09;;;16.94;57.80
33414;BME280;60055;41.884;12.534;2023-04-27T00:34:48;101019.03;;;16.99;57.28
33414;BME280;60055;41.884;12.534;2023-04-27T00:37:14;101019.91;;;17.00;55.83
33414;BME280;60055;41.884;12.534;2023-04-27T00:39:40;101006.47;;;17.01;55.03
33414;BME280;60055;41.884;12.534;2023-04-27T00:42:05;101003.97;;;16.98;55.00
33414;BME280;60055;41.884;12.534;2023-04-27T00:44:35;101000.53;;;16.96;55.25
33414;BME280;60055;41.884;12.534;2023-04-27T00:47:01;100999.56;;;16.97;54.60
33414;BME280;60055;41.884;12.534;2023-04-27T00:49:26;100997.00;;;16.96;53.77
33414;BME280;60055;41.884;12.534;2023-04-27T00:51:52;101011.03;;;16.99;53.22
33414;BME280;60055;41.884;12.534;2023-04-27T00:54:19;101011.03;;;16.99;52.62
33414;BME280;60055;41.884;12.534;2023-04-27T00:56:51;101007.75;;;16.94;52.14
33414;BME280;60055;41.884;12.534;2023-04-27T00:59:18;101008.13;;;16.88;52.42
33414;BME280;60055;41.884;12.534;2023-04-27T01:01:45;101013.63;;;16.85;52.79
33414;BME280;60055;41.884;12.534;2023-04-27T01:04:10;101010.28;;;16.81;52.70
33414;BME280;60055;41.884;12.534;2023-04-27T01:06:36;101012.34;;;16.76;54.05
33414;BME280;60055;41.884;12.534;2023-04-27T01:09:03;101006.31;;;16.73;53.13
33414;BME280;60055;41.884;12.534;2023-04-27T01:11:29;101005.31;;;16.75;53.29
33414;BME280;60055;41.884;12.534;2023-04-27T01:13:55;101009.94;;;16.72;52.99
33414;BME280;60055;41.884;12.534;2023-04-27T01:16:21;101009.94;;;16.56;51.01
33414;BME280;60055;41.884;12.534;2023-04-27T01:18:46;101012.50;;;16.42;52.06
33414;BME280;60055;41.884;12.534;2023-04-27T01:21:12;101007.25;;;16.25;53.02
33414;BME280;60055;41.884;12.534;2023-04-27T01:23:37;101013.22;;;16.13;54.43
33414;BME280;60055;41.884;12.534;2023-04-27T01:26:03;101018.19;;;16.19;55.32
33414;BME280;60055;41.884;12.534;2023-04-27T01:28:28;101015.97;;;15.78;54.22
33414;BME280;60055;41.884;12.534;2023-04-27T01:30:54;101014.41;;;15.92;54.29
33414;BME280;60055;41.884;12.534;2023-04-27T01:33:19;101016.78;;;15.96;53.33
33414;BME280;60055;41.884;12.534;2023-04-27T01:35:45;101021.34;;;15.94;53.45
33414;BME280;60055;41.884;12.534;2023-04-27T01:38:11;101013.88;;;15.68;53.76
33414;BME280;60055;41.884;12.534;2023-04-27T01:40:37;101016.81;;;15.79;53.12
33414;BME280;60055;41.884;12.534;2023-04-27T01:43:02;101016.06;;;15.60;53.07
33414;BME280;60055;41.884;12.534;2023-04-27T01:45:27;101025.63;;;15.64;52.79
33414;BME280;60055;41.884;12.534;2023-04-27T01:47:53;101025.00;;;15.59;53.35
33414;BME280;60055;41.884;12.534;2023-04-27T01:50:19;101022.28;;;15.60;53.02
33414;BME280;60055;41.884;12.534;2023-04-27T01:52:45;101027.06;;;15.54;52.53
33414;BME280;60055;41.884;12.534;2023-04-27T01:55:10;101035.31;;;15.48;52.66
33414;BME280;60055;41.884;12.534;2023-04-27T01:57:36;101033.91;;;15.41;52.77
33414;BME280;60055;41.884;12.534;2023-04-27T02:00:02;101032.00;;;15.25;53.28
33414;BME280;60055;41.884;12.534;2023-04-27T02:02:28;101036.09;;;15.32;53.09
33414;BME280;60055;41.884;12.534;2023-04-27T02:04:54;101039.25;;;15.05;53.47
33414;BME280;60055;41.884;12.534;2023-04-27T02:07:19;101048.31;;;14.83;54.33
33414;BME280;60055;41.884;12.534;2023-04-27T02:09:45;101056.53;;;14.96;53.96
33414;BME280;60055;41.884;12.534;2023-04-27T02:12:10;101056.84;;;14.71;54.47
33414;BME280;60055;41.884;12.534;2023-04-27T02:14:35;101048.25;;;14.48;54.46
33414;BME280;60055;41.884;12.534;2023-04-27T02:17:01;101043.19;;;14.60;54.34
33414;BME280;60055;41.884;12.534;2023-04-27T02:19:26;101047.50;;;14.81;53.74
33414;BME280;60055;41.884;12.534;2023-04-27T02:21:52;101049.09;;;14.48;54.17
33414;BME280;60055;41.884;12.534;2023-04-27T02:24:17;101045.03;;;14.60;53.67
33414;BME280;60055;41.884;12.534;2023-04-27T02:26:43;101043.28;;;14.40;54.00
33414;BME280;60055;41.884;12.534;2023-04-27T02:29:08;101048.34;;;14.46;53.99
33414;BME280;60055;41.884;12.534;2023-04-27T02:31:33;101045.81;;;14.62;53.31
33414;BME280;60055;41.884;12.534;2023-04-27T02:33:59;101039.97;;;14.54;53.57
33414;BME280;60055;41.884;12.534;2023-04-27T02:36:24;101036.91;;;14.44;53.87
33414;BME280;60055;41.884;12.534;2023-04-27T02:38:52;101036.75;;;14.66;52.84
33414;BME280;60055;41.884;12.534;2023-04-27T02:41:17;101034.09;;;14.47;53.09
33414;BME280;60055;41.884;12.534;2023-04-27T02:43:43;101032.44;;;14.45;53.76
33414;BME280;60055;41.884;12.534;2023-04-27T02:46:08;101035.47;;;14.56;53.28
33414;BME280;60055;41.884;12.534;2023-04-27T02:48:33;101029.56;;;14.68;53.07
33414;BME280;60055;41.884;12.534;2023-04-27T02:51:02;101027.00;;;14.66;52.83
33414;BME280;60055;41.884;12.534;2023-04-27T02:53:28;101023.53;;;14.64;52.90
33414;BME280;60055;41.884;12.534;2023-04-27T02:55:53;101029.72;;;14.65;52.71
33414;BME280;60055;41.884;12.534;2023-04-27T02:58:19;101030.69;;;14.81;52.11
33414;BME280;60055;41.884;12.534;2023-04-27T03:00:44;101033.03;;;14.87;51.97
33414;BME280;60055;41.884;12.534;2023-04-27T03:03:09;101029.56;;;14.68;52.75
33414;BME280;60055;41.884;12.534;2023-04-27T03:05:35;101023.88;;;14.75;52.34
33414;BME280;60055;41.884;12.534;2023-04-27T03:08:01;101026.69;;;14.72;52.00
33414;BME280;60055;41.884;12.534;2023-04-27T03:10:26;101027.41;;;14.76;51.59
33414;BME280;60055;41.884;12.534;2023-04-27T03:12:52;101032.94;;;14.71;52.02
33414;BME280;60055;41.884;12.534;2023-04-27T03:15:17;101029.72;;;14.65;52.72
33414;BME280;60055;41.884;12.534;2023-04-27T03:17:43;101035.59;;;14.71;52.23
33414;BME280;60055;41.884;12.534;2023-04-27T03:20:09;101036.47;;;14.72;52.07
33414;BME280;60055;41.884;12.534;2023-04-27T03:22:35;101034.81;;;14.69;52.26
33414;BME280;60055;41.884;12.534;2023-04-27T03:25:01;101027.09;;;14.82;52.00
33414;BME280;60055;41.884;12.534;2023-04-27T03:27:27;101027.88;;;14.84;51.72
33414;BME280;60055;41.884;12.534;2023-04-27T03:29:53;101021.38;;;14.72;51.68
33414;BME280;60055;41.884;12.534;2023-04-27T03:32:18;101029.78;;;14.45;52.68
33414;BME280;60055;41.884;12.534;2023-04-27T03:34:44;101031.16;;;14.35;52.78
33414;BME280;60055;41.884;12.534;2023-04-27T03:37:09;101033.09;;;13.92;53.60
33414;BME280;60055;41.884;12.534;2023-04-27T03:39:34;101032.28;;;13.90;53.62
33414;BME280;60055;41.884;12.534;2023-04-27T03:42:00;101038.44;;;14.11;53.23
33414;BME280;60055;41.884;12.534;2023-04-27T03:44:26;101039.97;;;13.96;53.40
33414;BME280;60055;41.884;12.534;2023-04-27T03:46:52;101033.75;;;13.97;53.01
33414;BME280;60055;41.884;12.534;2023-04-27T03:49:17;101043.56;;;13.95;53.37
33414;BME280;60055;41.884;12.534;2023-04-27T03:51:42;101035.63;;;13.95;53.17
33414;BME280;60055;41.884;12.534;2023-04-27T03:54:08;101035.53;;;13.97;53.14
33414;BME280;60055;41.884;12.534;2023-04-27T03:56:34;101036.97;;;14.04;52.94
33414;BME280;60055;41.884;12.534;2023-04-27T03:59:01;101038.16;;;13.78;53.10
33414;BME280;60055;41.884;12.534;2023-04-27T04:01:27;101030.44;;;13.92;53.41
33414;BME280;60055;41.884;12.534;2023-04-27T04:03:52;101039.00;;;13.99;52.95
33414;BME280;60055;41.884;12.534;2023-04-27T04:06:18;101037.13;;;14.01;52.76
33414;BME280;60055;41.884;12.534;2023-04-27T04:08:43;101039.81;;;13.99;52.98
33414;BME280;60055;41.884;12.534;2023-04-27T04:11:09;101041.97;;;13.91;53.52
33414;BME280;60055;41.884;12.534;2023-04-27T04:13:34;101039.47;;;13.88;53.67
33414;BME280;60055;41.884;12.534;2023-04-27T04:16:05;101043.97;;;13.86;54.62
33414;BME280;60055;41.884;12.534;2023-04-27T04:18:31;101048.50;;;14.03;53.86
33414;BME280;60055;41.884;12.534;2023-04-27T04:20:56;101056.72;;;13.98;54.23
33414;BME280;60055;41.884;12.534;2023-04-27T04:23:22;101055.28;;;14.10;54.39
33414;BME280;60055;41.884;12.534;2023-04-27T04:25:48;101060.97;;;14.21;53.95
33414;BME280;60055;41.884;12.534;2023-04-27T04:28:14;101064.56;;;14.20;54.44
33414;BME280;60055;41.884;12.534;2023-04-27T04:30:39;101059.38;;;14.17;54.54
33414;BME280;60055;41.884;12.534;2023-04-27T04:33:05;101065.13;;;14.26;54.24
33414;BME280;60055;41.884;12.534;2023-04-27T04:35:30;101070.38;;;14.28;54.23
33414;BME280;60055;41.884;12.534;2023-04-27T04:37:58;101078.13;;;14.14;55.29
33414;BME280;60055;41.884;12.534;2023-04-27T04:40:23;101082.28;;;14.19;55.05
33414;BME280;60055;41.884;12.534;2023-04-27T04:42:48;101090.53;;;14.13;55.02
33414;BME280;60055;41.884;12.534;2023-04-27T04:45:14;101092.91;;;14.19;55.15
33414;BME280;60055;41.884;12.534;2023-04-27T04:47:39;101104.97;;;14.26;54.96
33414;BME280;60055;41.884;12.534;2023-04-27T04:50:06;101097.88;;;14.27;55.13
33414;BME280;60055;41.884;12.534;2023-04-27T04:52:33;101098.88;;;14.24;55.24
33414;BME280;60055;41.884;12.534;2023-04-27T04:54:58;101103.31;;;14.44;53.97
33414;BME280;60055;41.884;12.534;2023-04-27T04:57:24;101098.38;;;14.55;53.46
33414;BME280;60055;41.884;12.534;2023-04-27T04:59:49;101098.94;;;14.80;52.91
33414;BME280;60055;41.884;12.534;2023-04-27T05:02:15;101104.16;;;15.01;52.44
33414;BME280;60055;41.884;12.534;2023-04-27T05:04:40;101106.66;;;15.22;51.27
33414;BME280;60055;41.884;12.534;2023-04-27T05:07:06;101107.63;;;15.39;50.17
33414;BME280;60055;41.884;12.534;2023-04-27T05:09:31;101107.25;;;15.46;49.49
33414;BME280;60055;41.884;12.534;2023-04-27T05:11:57;101112.47;;;15.66;49.06
33414;BME280;60055;41.884;12.534;2023-04-27T05:14:22;101109.84;;;15.82;48.53
33414;BME280;60055;41.884;12.534;2023-04-27T05:16:48;101124.97;;;15.99;47.80
33414;BME280;60055;41.884;12.534;2023-04-27T05:19:13;101126.44;;;16.21;47.12
33414;BME280;60055;41.884;12.534;2023-04-27T05:21:43;101128.34;;;16.52;46.30
33414;BME280;60055;41.884;12.534;2023-04-27T05:24:10;101127.28;;;16.72;46.17
33414;BME280;60055;41.884;12.534;2023-04-27T05:26:35;101132.34;;;16.76;46.34
33414;BME280;60055;41.884;12.534;2023-04-27T05:29:00;101139.44;;;16.93;45.50
33414;BME280;60055;41.884;12.534;2023-04-27T05:31:26;101139.44;;;16.93;45.70
33414;BME280;60055;41.884;12.534;2023-04-27T05:33:52;101144.25;;;17.02;45.28
33414;BME280;60055;41.884;12.534;2023-04-27T05:36:17;101153.03;;;16.89;45.81
33414;BME280;60055;41.884;12.534;2023-04-27T05:38:42;101152.09;;;17.05;45.50
33414;BME280;60055;41.884;12.534;2023-04-27T05:41:08;101148.13;;;17.12;45.12
33414;BME280;60055;41.884;12.534;2023-04-27T05:43:33;101166.28;;;17.37;44.66
33414;BME280;60055;41.884;12.534;2023-04-27T05:45:59;101165.63;;;17.79;44.10
33414;BME280;60055;41.884;12.534;2023-04-27T05:48:25;101169.44;;;17.75;43.85
33414;BME280;60055;41.884;12.534;2023-04-27T05:50:58;101170.22;;;17.77;43.15
33414;BME280;60055;41.884;12.534;2023-04-27T05:53:24;101177.69;;;17.86;42.99
33414;BME280;60055;41.884;12.534;2023-04-27T05:55:50;101184.06;;;17.83;43.39
33414;BME280;60055;41.884;12.534;2023-04-27T05:58:15;101187.63;;;17.98;42.72
33414;BME280;60055;41.884;12.534;2023-04-27T06:00:41;101176.06;;;18.27;42.33
33414;BME280;60055;41.884;12.534;2023-04-27T06:03:06;101176.63;;;18.32;42.73
33414;BME280;60055;41.884;12.534;2023-04-27T06:05:31;101177.25;;;18.66;41.41
33414;BME280;60055;41.884;12.534;2023-04-27T06:07:58;101177.56;;;18.75;41.64
33414;BME280;60055;41.884;12.534;2023-04-27T06:10:24;101169.63;;;18.74;41.23
33414;BME280;60055;41.884;12.534;2023-04-27T06:12:49;101169.81;;;18.85;41.49
33414;BME280;60055;41.884;12.534;2023-04-27T06:15:14;101174.66;;;19.07;41.07
33414;BME280;60055;41.884;12.534;2023-04-27T06:17:41;101178.09;;;19.23;41.10
33414;BME280;60055;41.884;12.534;2023-04-27T06:20:10;101171.25;;;19.46;40.80
33414;BME280;60055;41.884;12.534;2023-04-27T06:22:36;101172.22;;;19.45;41.09
33414;BME280;60055;41.884;12.534;2023-04-27T06:25:03;101175.94;;;19.69;40.59
33414;BME280;60055;41.884;12.534;2023-04-27T06:27:28;101173.06;;;19.72;40.07
33414;BME280;60055;41.884;12.534;2023-04-27T06:29:54;101180.94;;;19.61;41.58
33414;BME280;60055;41.884;12.534;2023-04-27T06:32:19;101177.72;;;19.95;40.40
33414;BME280;60055;41.884;12.534;2023-04-27T06:34:45;101174.97;;;19.97;40.12
33414;BME280;60055;41.884;12.534;2023-04-27T06:37:11;101176.72;;;20.23;39.35
33414;BME280;60055;41.884;12.534;2023-04-27T06:39:37;101179.66;;;20.32;38.77
33414;BME280;60055;41.884;12.534;2023-04-27T06:42:03;101180.72;;;20.30;39.23
33414;BME280;60055;41.884;12.534;2023-04-27T06:44:29;101187.69;;;20.45;39.96
33414;BME280;60055;41.884;12.534;2023-04-27T06:46:54;101177.94;;;20.57;38.53
33414;BME280;60055;41.884;12.534;2023-04-27T06:49:20;101183.75;;;20.51;39.11
33414;BME280;60055;41.884;12.534;2023-04-27T06:51:46;101184.31;;;21.17;38.20
33414;BME280;60055;41.884;12.534;2023-04-27T06:54:12;101195.94;;;21.18;37.40
33414;BME280;60055;41.884;12.534;2023-04-27T06:56:37;101188.56;;;20.71;37.48
33414;BME280;60055;41.884;12.534;2023-04-27T06:59:03;101193.97;;;21.07;38.17
33414;BME280;60055;41.884;12.534;2023-04-27T07:01:28;101198.53;;;21.43;37.87
33414;BME280;60055;41.884;12.534;2023-04-27T07:03:53;101194.66;;;21.71;37.37
33414;BME280;60055;41.884;12.534;2023-04-27T07:06:19;101194.94;;;21.79;37.57
33414;BME280;60055;41.884;12.534;2023-04-27T07:08:44;101185.53;;;21.84;37.29
33414;BME280;60055;41.884;12.534;2023-04-27T07:11:10;101192.03;;;21.82;37.55
33414;BME280;60055;41.884;12.534;2023-04-27T07:13:35;101190.44;;;22.03;37.86
33414;BME280;60055;41.884;12.534;2023-04-27T07:16:01;101184.44;;;21.76;39.33
33414;BME280;60055;41.884;12.534;2023-04-27T07:18:26;101188.31;;;21.96;38.93
33414;BME280;60055;41.884;12.534;2023-04-27T07:20:55;101183.25;;;22.15;38.54
33414;BME280;60055;41.884;12.534;2023-04-27T07:23:22;101190.63;;;22.35;38.43
33414;BME280;60055;41.884;12.534;2023-04-27T07:25:48;101194.22;;;22.58;38.20
33414;BME280;60055;41.884;12.534;2023-04-27T07:28:13;101196.50;;;21.94;38.88
33414;BME280;60055;41.884;12.534;2023-04-27T07:30:39;101199.31;;;21.93;38.70
33414;BME280;60055;41.884;12.534;2023-04-27T07:33:06;101200.81;;;22.08;38.71
33414;BME280;60055;41.884;12.534;2023-04-27T07:35:32;101193.63;;;22.08;38.42
33414;BME280;60055;41.884;12.534;2023-04-27T07:37:59;101184.28;;;22.36;38.41
33414;BME280;60055;41.884;12.534;2023-04-27T07:40:26;101186.84;;;22.26;37.92
33414;BME280;60055;41.884;12.534;2023-04-27T07:42:52;101194.22;;;22.58;38.08
33414;BME280;60055;41.884;12.534;2023-04-27T07:45:18;101192.56;;;22.90;37.23
33414;BME280;60055;41.884;12.534;2023-04-27T07:47:43;101192.63;;;22.44;37.74
33414;BME280;60055;41.884;12.534;2023-04-27T07:50:09;101191.84;;;22.77;37.55
33414;BME280;60055;41.884;12.534;2023-04-27T07:52:35;101197.47;;;22.74;37.37
33414;BME280;60055;41.884;12.534;2023-04-27T07:55:01;101190.34;;;23.17;36.84
33414;BME280;60055;41.884;12.534;2023-04-27T07:57:27;101183.72;;;23.44;35.65
33414;BME280;60055;41.884;12.534;2023-04-27T07:59:53;101191.31;;;23.81;34.69
33414;BME280;60055;41.884;12.534;2023-04-27T08:02:18;101188.00;;;23.35;34.93
33414;BME280;60055;41.884;12.534;2023-04-27T08:04:44;101188.97;;;23.23;35.98
33414;BME280;60055;41.884;12.534;2023-04-27T08:07:09;101187.75;;;23.16;35.78
33414;BME280;60055;41.884;12.534;2023-04-27T08:09:35;101185.56;;;23.21;35.93
33414;BME280;60055;41.884;12.534;2023-04-27T08:12:00;101189.72;;;21.88;37.80
33414;BME280;60055;41.884;12.534;2023-04-27T08:14:27;101183.25;;;22.94;36.94
33414;BME280;60055;41.884;12.534;2023-04-27T08:16:52;101185.94;;;22.72;36.35
33414;BME280;60055;41.884;12.534;2023-04-27T08:19:17;101183.84;;;23.31;35.83
33414;BME280;60055;41.884;12.534;2023-04-27T08:21:43;101185.22;;;23.14;35.57
33414;BME280;60055;41.884;12.534;2023-04-27T08:24:08;101184.94;;;22.51;37.53
33414;BME280;60055;41.884;12.534;2023-04-27T08:26:34;101189.81;;;22.46;38.11
33414;BME280;60055;41.884;12.534;2023-04-27T08:29:00;101185.56;;;23.21;36.63
33414;BME280;60055;41.884;12.534;2023-04-27T08:31:26;101184.19;;;23.49;35.82
33414;BME280;60055;41.884;12.534;2023-04-27T08:33:52;101184.19;;;23.26;36.76
33414;BME280;60055;41.884;12.534;2023-04-27T08:36:22;101180.56;;;22.94;37.90
33414;BME280;60055;41.884;12.534;2023-04-27T08:38:52;101178.88;;;22.25;38.40
33414;BME280;60055;41.884;12.534;2023-04-27T08:41:22;101191.44;;;22.92;37.33
33414;BME280;60055;41.884;12.534;2023-04-27T08:43:49;101190.97;;;22.99;37.42
33414;BME280;60055;41.884;12.534;2023-04-27T08:46:22;101191.31;;;23.27;36.88
33414;BME280;60055;41.884;12.534;2023-04-27T08:48:53;101191.94;;;23.42;36.73
33414;BME280;60055;41.884;12.534;2023-04-27T08:51:20;101199.25;;;23.40;36.92
33414;BME280;60055;41.884;12.534;2023-04-27T08:53:50;101192.78;;;23.20;35.82
33414;BME280;60055;41.884;12.534;2023-04-27T08:56:20;101191.47;;;23.15;36.30
33414;BME280;60055;41.884;12.534;2023-04-27T08:58:53;101189.19;;;23.53;33.89
33414;BME280;60055;41.884;12.534;2023-04-27T09:01:19;101194.31;;;23.56;34.46
33414;BME280;60055;41.884;12.534;2023-04-27T09:03:45;101195.78;;;23.60;33.69
33414;BME280;60055;41.884;12.534;2023-04-27T09:06:11;101187.72;;;22.49;35.37
33414;BME280;60055;41.884;12.534;2023-04-27T09:11:06;101196.72;;;22.83;35.67
33414;BME280;60055;41.884;12.534;2023-04-27T09:13:35;101189.72;;;22.91;34.62
33414;BME280;60055;41.884;12.534;2023-04-27T09:16:01;101196.22;;;23.00;34.89
33414;BME280;60055;41.884;12.534;2023-04-27T09:18:26;101197.66;;;23.26;34.91
33414;BME280;60055;41.884;12.534;2023-04-27T09:20:52;101190.03;;;23.65;33.89
33414;BME280;60055;41.884;12.534;2023-04-27T09:26:04;101182.91;;;23.64;33.55
33414;BME280;60055;41.884;12.534;2023-04-27T09:28:33;101186.88;;;23.37;33.59
33414;BME280;60055;41.884;12.534;2023-04-27T09:31:01;101184.25;;;22.93;34.72
33414;BME280;60055;41.884;12.534;2023-04-27T09:33:32;101182.28;;;22.84;33.95
33414;BME280;60055;41.884;12.534;2023-04-27T09:35:59;101184.00;;;23.07;32.68
33414;BME280;60055;41.884;12.534;2023-04-27T09:38:25;101180.31;;;22.97;33.45
33414;BME280;60055;41.884;12.534;2023-04-27T09:40:52;101187.91;;;22.81;33.35
33414;BME280;60055;41.884;12.534;2023-04-27T09:43:18;101184.59;;;23.11;34.09
33414;BME280;60055;41.884;12.534;2023-04-27T09:45:44;101181.53;;;22.93;33.20
33414;BME280;60055;41.884;12.534;2023-04-27T09:48:11;101183.75;;;23.10;33.11
33414;BME280;60055;41.884;12.534;2023-04-27T09:50:39;101187.75;;;23.16;33.89
33414;BME280;60055;41.884;12.534;2023-04-27T09:53:08;101187.38;;;23.31;33.11
33414;BME280;60055;41.884;12.534;2023-04-27T10:09:00;101181.84;;;23.33;32.13
33414;BME280;60055;41.884;12.534;2023-04-27T10:11:40;101188.16;;;23.00;33.78
33414;BME280;60055;41.884;12.534;2023-04-27T10:14:07;101189.13;;;23.10;34.31
33414;BME280;60055;41.884;12.534;2023-04-27T10:16:43;101179.81;;;23.03;34.83
33414;BME280;60055;41.884;12.534;2023-04-27T10:19:10;101184.91;;;22.62;33.76
33414;BME280;60055;41.884;12.534;2023-04-27T10:21:36;101182.91;;;22.87;34.77
33414;BME280;60055;41.884;12.534;2023-04-27T10:24:08;101175.56;;;22.67;34.36
33414;BME280;60055;41.884;12.534;2023-04-27T10:26:33;101181.78;;;22.79;35.31
33414;BME280;60055;41.884;12.534;2023-04-27T10:29:07;101182.53;;;22.81;35.00
33414;BME280;60055;41.884;12.534;2023-04-27T10:31:33;101175.28;;;23.15;34.06
33414;BME280;60055;41.884;12.534;2023-04-27T10:34:09;101175.53;;;22.89;32.72
33414;BME280;60055;41.884;12.534;2023-04-27T10:36:38;101174.78;;;22.54;33.36
33414;BME280;60055;41.884;12.534;2023-04-27T10:39:20;101165.94;;;22.30;32.38
33414;BME280;60055;41.884;12.534;2023-04-27T10:41:52;101176.31;;;22.23;32.55
33414;BME280;60055;41.884;12.534;2023-04-27T10:44:26;101167.25;;;22.13;34.43
33414;BME280;60055;41.884;12.534;2023-04-27T10:46:59;101163.72;;;22.35;35.03
33414;BME280;60055;41.884;12.534;2023-04-27T10:49:29;101162.66;;;22.60;36.25
33414;BME280;60055;41.884;12.534;2023-04-27T10:51:58;101160.00;;;22.71;36.21
33414;BME280;60055;41.884;12.534;2023-04-27T10:54:28;101164.50;;;22.81;35.48
33414;BME280;60055;41.884;12.534;2023-04-27T10:56:54;101168.81;;;22.73;35.65
33414;BME280;60055;41.884;12.534;2023-04-27T10:59:26;101164.78;;;22.89;35.10
33414;BME280;60055;41.884;12.534;2023-04-27T11:01:51;101164.38;;;23.05;34.11
33414;BME280;60055;41.884;12.534;2023-04-27T11:04:17;101161.34;;;22.87;35.42
33414;BME280;60055;41.884;12.534;2023-04-27T11:06:44;101165.13;;;23.07;35.95
33414;BME280;60055;41.884;12.534;2023-04-27T11:09:13;101162.09;;;23.01;34.76
33414;BME280;60055;41.884;12.534;2023-04-27T11:11:49;101161.47;;;22.86;32.72
33414;BME280;60055;41.884;12.534;2023-04-27T11:14:18;101167.38;;;22.34;31.80
33414;BME280;60055;41.884;12.534;2023-04-27T11:16:45;101169.31;;;22.67;32.92
33414;BME280;60055;41.884;12.534;2023-04-27T11:19:11;101161.00;;;22.70;33.98
33414;BME280;60055;41.884;12.534;2023-04-27T11:21:37;101162.72;;;22.71;34.26
33414;BME280;60055;41.884;12.534;2023-04-27T11:24:04;101156.09;;;22.97;34.97
33414;BME280;60055;41.884;12.534;2023-04-27T11:26:30;101155.22;;;23.08;35.46
33414;BME280;60055;41.884;12.534;2023-04-27T11:29:01;101156.44;;;23.15;34.46
33414;BME280;60055;41.884;12.534;2023-04-27T11:34:08;101149.50;;;23.33;33.12
33414;BME280;60055;41.884;12.534;2023-04-27T11:36:34;101152.38;;;23.20;32.54
33414;BME280;60055;41.884;12.534;2023-04-27T11:39:00;101153.34;;;23.19;32.70
33414;BME280;60055;41.884;12.534;2023-04-27T11:41:35;101148.34;;;23.04;31.68
33414;BME280;60055;41.884;12.534;2023-04-27T11:44:05;101149.44;;;23.12;31.83
33414;BME280;60055;41.884;12.534;2023-04-27T11:46:32;101145.34;;;23.40;30.41
33414;BME280;60055;41.884;12.534;2023-04-27T11:49:01;101150.88;;;23.27;30.42
33414;BME280;60055;41.884;12.534;2023-04-27T11:51:29;101142.72;;;23.61;29.69
33414;BME280;60055;41.884;12.534;2023-04-27T11:54:00;101142.00;;;23.59;30.06
33414;BME280;60055;41.884;12.534;2023-04-27T11:56:33;101140.28;;;23.58;28.18
33414;BME280;60055;41.884;12.534;2023-04-27T11:58:58;101138.38;;;23.49;27.76
33414;BME280;60055;41.884;12.534;2023-04-27T12:01:24;101137.09;;;23.53;26.74
33414;BME280;60055;41.884;12.534;2023-04-27T12:03:49;101133.75;;;23.28;27.15
33414;BME280;60055;41.884;12.534;2023-04-27T12:06:15;101133.44;;;23.54;27.30
33414;BME280;60055;41.884;12.534;2023-04-27T12:08:40;101136.28;;;23.52;26.51
33414;BME280;60055;41.884;12.534;2023-04-27T12:11:06;101125.25;;;23.55;26.18
33414;BME280;60055;41.884;12.534;2023-04-27T12:13:31;101131.38;;;23.46;26.30
33414;BME280;60055;41.884;12.534;2023-04-27T12:15:56;101140.19;;;23.80;25.84
33414;BME280;60055;41.884;12.534;2023-04-27T12:18:22;101125.19;;;23.87;23.44
33414;BME280;60055;41.884;12.534;2023-04-27T12:20:48;101125.13;;;23.77;23.21
33414;BME280;60055;41.884;12.534;2023-04-27T12:23:13;101122.03;;;23.82;24.09
33414;BME280;60055;41.884;12.534;2023-04-27T12:25:39;101128.19;;;23.73;23.35
33414;BME280;60055;41.884;12.534;2023-04-27T12:28:05;101125.47;;;23.84;23.66
33414;BME280;60055;41.884;12.534;2023-04-27T12:30:31;101132.53;;;23.96;24.51
33414;BME280;60055;41.884;12.534;2023-04-27T12:32:56;101131.13;;;23.81;22.85
33414;BME280;60055;41.884;12.534;2023-04-27T12:35:23;101132.25;;;23.78;23.64
33414;BME280;60055;41.884;12.534;2023-04-27T12:37:49;101132.69;;;24.04;23.43
33414;BME280;60055;41.884;12.534;2023-04-27T12:40:14;101131.50;;;23.97;23.57
33414;BME280;60055;41.884;12.534;2023-04-27T12:42:40;101136.22;;;23.63;24.52
33414;BME280;60055;41.884;12.534;2023-04-27T12:45:06;101134.22;;;23.97;24.55
33414;BME280;60055;41.884;12.534;2023-04-27T12:47:31;101135.06;;;23.98;24.26
33414;BME280;60055;41.884;12.534;2023-04-27T12:49:59;101129.28;;;24.02;24.85
33414;BME280;60055;41.884;12.534;2023-04-27T12:52:24;101132.44;;;24.07;25.60
33414;BME280;60055;41.884;12.534;2023-04-27T12:54:49;101129.09;;;23.94;26.26
33414;BME280;60055;41.884;12.534;2023-04-27T12:57:21;101134.84;;;23.89;26.16